sensor_id;sensor_type;location;lat;lon;timestamp;pressure;altitude;pressure_sealevel;temperature;humidity
38558;BME280;24333;42.626;23.308;2023-09-19T00:01:06;69873.41;;;-148.95;100.00
38558;BME280;24333;42.626;23.308;2023-09-19T00:03:36;69881.69;;;-148.95;100.00
38558;BME280;24333;42.626;23.308;2023-09-19T00:06:03;69883.75;;;-148.95;100.00
38558;BME280;24333;42.626;23.308;2023-09-19T00:34:22;69927.31;;;-148.95;100.00
38558;BME280;24333;42.626;23.308;2023-09-19T00:36:48;69931.47;;;-148.95;100.00
38558;BME280;24333;42.626;23.308;2023-09-19T00:41:49;69927.31;;;-148.95;100.00
38558;BME280;24333;42.626;23.308;2023-09-19T00:44:15;69927.31;;;-148.95;100.00
38558;BME280;24333;42.626;23.308;2023-09-19T00:46:41;69923.19;;;-148.95;100.00
38558;BME280;24333;42.626;23.308;2023-09-19T00:49:09;69919.03;;;-148.95;100.00
38558;BME280;24333;42.626;23.308;2023-09-19T00:51:36;69923.19;;;-148.95;100.00
38558;BME280;24333;42.626;23.308;2023-09-19T01:00:36;69943.94;;;-148.95;100.00
38558;BME280;24333;42.626;23.308;2023-09-19T01:03:02;69943.94;;;-148.95;100.00
38558;BME280;24333;42.626;23.308;2023-09-19T01:05:54;69941.84;;;-148.95;100.00
38558;BME280;24333;42.626;23.308;2023-09-19T01:08:20;69939.78;;;-148.95;100.00
38558;BME280;24333;42.626;23.308;2023-09-19T01:10:54;69946.00;;;-148.95;100.00
38558;BME280;24333;42.626;23.308;2023-09-19T01:14:11;69952.22;;;-148.95;100.00
38558;BME280;24333;42.626;23.308;2023-09-19T01:16:36;69968.81;;;-148.95;100.00
38558;BME280;24333;42.626;23.308;2023-09-19T01:19:24;69968.81;;;-148.95;100.00
38558;BME280;24333;42.626;23.308;2023-09-19T01:21:58;69977.13;;;-148.95;100.00
38558;BME280;24333;42.626;23.308;2023-09-19T01:25:05;69983.34;;;-148.95;100.00
38558;BME280;24333;42.626;23.308;2023-09-19T01:30:26;69993.72;;;-148.95;100.00
38558;BME280;24333;42.626;23.308;2023-09-19T01:32:53;69985.41;;;-148.95;100.00
38558;BME280;24333;42.626;23.308;2023-09-19T01:35:19;69985.41;;;-148.95;100.00
38558;BME280;24333;42.626;23.308;2023-09-19T01:37:45;69985.41;;;-148.95;100.00
38558;BME280;24333;42.626;23.308;2023-09-19T01:40:13;69981.25;;;-148.95;100.00
38558;BME280;24333;42.626;23.308;2023-09-19T01:45:31;69991.63;;;-148.95;100.00
38558;BME280;24333;42.626;23.308;2023-09-19T01:48:07;69993.72;;;-148.95;100.00
38558;BME280;24333;42.626;23.308;2023-09-19T01:50:48;69993.72;;;-148.95;100.00
38558;BME280;24333;42.626;23.308;2023-09-19T01:53:27;69989.56;;;-148.95;100.00
38558;BME280;24333;42.626;23.308;2023-09-19T01:55:56;69991.63;;;-148.95;100.00
38558;BME280;24333;42.626;23.308;2023-09-19T02:00:54;69999.94;;;-148.95;100.00
38558;BME280;24333;42.626;23.308;2023-09-19T02:03:22;70006.16;;;-148.95;100.00
38558;BME280;24333;42.626;23.308;2023-09-19T02:05:50;70004.09;;;-148.95;100.00
38558;BME280;24333;42.626;23.308;2023-09-19T02:08:20;69999.94;;;-148.95;100.00
38558;BME280;24333;42.626;23.308;2023-09-19T02:10:47;69999.94;;;-148.95;100.00
38558;BME280;24333;42.626;23.308;2023-09-19T02:13:16;70004.09;;;-148.95;100.00
38558;BME280;24333;42.626;23.308;2023-09-19T02:15:42;70006.16;;;-148.95;100.00
38558;BME280;24333;42.626;23.308;2023-09-19T02:18:09;70008.22;;;-148.95;100.00
38558;BME280;24333;42.626;23.308;2023-09-19T02:20:34;69997.88;;;-148.95;100.00
38558;BME280;24333;42.626;23.308;2023-09-19T02:23:00;70006.16;;;-148.95;100.00
38558;BME280;24333;42.626;23.308;2023-09-19T02:25:26;70002.00;;;-148.95;100.00
38558;BME280;24333;42.626;23.308;2023-09-19T02:27:52;69997.88;;;-148.95;100.00
38558;BME280;24333;42.626;23.308;2023-09-19T02:30:19;69997.88;;;-148.95;100.00
38558;BME280;24333;42.626;23.308;2023-09-19T02:32:47;69993.72;;;-148.95;100.00
38558;BME280;24333;42.626;23.308;2023-09-19T02:35:14;69989.56;;;-148.95;100.00
38558;BME280;24333;42.626;23.308;2023-09-19T02:37:41;69993.72;;;-148.95;100.00
38558;BME280;24333;42.626;23.308;2023-09-19T02:40:06;69985.41;;;-148.95;100.00
38558;BME280;24333;42.626;23.308;2023-09-19T02:42:44;69985.41;;;-148.95;100.00
38558;BME280;24333;42.626;23.308;2023-09-19T02:45:14;69977.13;;;-148.95;100.00
38558;BME280;24333;42.626;23.308;2023-09-19T02:47:43;69972.97;;;-148.95;100.00
38558;BME280;24333;42.626;23.308;2023-09-19T02:50:09;69977.13;;;-148.95;100.00
38558;BME280;24333;42.626;23.308;2023-09-19T02:52:36;69972.97;;;-148.95;100.00
38558;BME280;24333;42.626;23.308;2023-09-19T02:55:01;69966.75;;;-148.95;100.00
38558;BME280;24333;42.626;23.308;2023-09-19T02:57:29;69968.81;;;-148.95;100.00
38558;BME280;24333;42.626;23.308;2023-09-19T02:59:54;69964.66;;;-148.95;100.00
38558;BME280;24333;42.626;23.308;2023-09-19T03:02:20;69962.59;;;-148.95;100.00
38558;BME280;24333;42.626;23.308;2023-09-19T03:04:46;69968.81;;;-148.95;100.00
38558;BME280;24333;42.626;23.308;2023-09-19T03:07:12;69962.59;;;-148.95;100.00
38558;BME280;24333;42.626;23.308;2023-09-19T03:09:37;69964.66;;;-148.95;100.00
38558;BME280;24333;42.626;23.308;2023-09-19T03:12:03;69964.66;;;-148.95;100.00
38558;BME280;24333;42.626;23.308;2023-09-19T03:14:29;69964.66;;;-148.95;100.00
38558;BME280;24333;42.626;23.308;2023-09-19T03:17:00;69970.91;;;-148.95;100.00
38558;BME280;24333;42.626;23.308;2023-09-19T03:19:26;69962.59;;;-148.95;100.00
38558;BME280;24333;42.626;23.308;2023-09-19T03:21:52;69970.91;;;-148.95;100.00
38558;BME280;24333;42.626;23.308;2023-09-19T03:24:18;69972.97;;;-148.95;100.00
38558;BME280;24333;42.626;23.308;2023-09-19T06:21:19;69670.09;;;-148.95;100.00
38558;BME280;24333;42.626;23.308;2023-09-19T06:23:45;69670.09;;;-148.95;100.00
38558;BME280;24333;42.626;23.308;2023-09-19T06:26:10;69657.66;;;-148.95;100.00
38558;BME280;24333;42.626;23.308;2023-09-19T06:28:35;69643.13;;;-148.95;100.00
38558;BME280;24333;42.626;23.308;2023-09-19T06:31:02;69626.53;;;-148.95;100.00
38558;BME280;24333;42.626;23.308;2023-09-19T06:33:29;69628.63;;;-148.95;100.00
38558;BME280;24333;42.626;23.308;2023-09-19T06:35:56;69624.47;;;-148.95;99.81
38558;BME280;24333;42.626;23.308;2023-09-19T06:38:25;69620.31;;;-148.95;98.59
38558;BME280;24333;42.626;23.308;2023-09-19T06:40:50;69603.72;;;-148.95;99.31
38558;BME280;24333;42.626;23.308;2023-09-19T06:43:17;69599.59;;;-148.95;98.51
38558;BME280;24333;42.626;23.308;2023-09-19T06:45:48;69587.13;;;-148.95;97.92
38558;BME280;24333;42.626;23.308;2023-09-19T06:48:15;69593.34;;;-148.95;95.96
38558;BME280;24333;42.626;23.308;2023-09-19T06:50:41;69591.28;;;-148.95;95.21
38558;BME280;24333;42.626;23.308;2023-09-19T06:53:22;69587.13;;;-148.95;95.49
38558;BME280;24333;42.626;23.308;2023-09-19T06:55:49;69589.22;;;-148.95;96.59
38558;BME280;24333;42.626;23.308;2023-09-19T06:58:15;69568.47;;;-148.95;93.06
38558;BME280;24333;42.626;23.308;2023-09-19T07:00:42;69545.66;;;-148.95;92.07
38558;BME280;24333;42.626;23.308;2023-09-19T07:24:16;69473.06;;;-148.95;85.79
38558;BME280;24333;42.626;23.308;2023-09-19T07:26:42;69439.88;;;-148.95;83.77
38558;BME280;24333;42.626;23.308;2023-09-19T07:29:07;69433.63;;;-148.95;81.52
38558;BME280;24333;42.626;23.308;2023-09-19T07:34:09;69441.94;;;-148.95;79.84
38558;BME280;24333;42.626;23.308;2023-09-19T07:36:35;69450.22;;;-148.95;79.85
38558;BME280;24333;42.626;23.308;2023-09-19T07:49:23;69402.53;;;-148.95;78.41
38558;BME280;24333;42.626;23.308;2023-09-19T07:51:48;69394.22;;;-148.95;78.41
38558;BME280;24333;42.626;23.308;2023-09-19T07:54:15;69377.63;;;-148.95;76.06
38558;BME280;24333;42.626;23.308;2023-09-19T07:57:22;69400.44;;;-148.95;76.93
38558;BME280;24333;42.626;23.308;2023-09-19T08:00:10;69421.19;;;-148.95;77.19
38558;BME280;24333;42.626;23.308;2023-09-19T08:05:11;69435.72;;;-148.95;78.11
38558;BME280;24333;42.626;23.308;2023-09-19T08:07:43;69479.28;;;-148.95;80.25
38558;BME280;24333;42.626;23.308;2023-09-19T08:10:11;69460.59;;;-148.95;79.16
38558;BME280;24333;42.626;23.308;2023-09-19T08:12:41;69425.34;;;-148.95;79.45
38558;BME280;24333;42.626;23.308;2023-09-19T08:15:16;69398.38;;;-148.95;79.48
38558;BME280;24333;42.626;23.308;2023-09-19T08:24:48;69431.56;;;-148.95;79.10
38558;BME280;24333;42.626;23.308;2023-09-19T08:27:14;69412.91;;;-148.95;78.57
38558;BME280;24333;42.626;23.308;2023-09-19T08:29:44;69408.75;;;-148.95;77.21
38558;BME280;24333;42.626;23.308;2023-09-19T08:32:10;69396.31;;;-148.95;78.02
38558;BME280;24333;42.626;23.308;2023-09-19T08:34:36;69363.13;;;-148.95;78.00
38558;BME280;24333;42.626;23.308;2023-09-19T08:37:03;69325.78;;;-148.95;76.83
38558;BME280;24333;42.626;23.308;2023-09-19T08:39:29;69317.50;;;-148.95;74.91
38558;BME280;24333;42.626;23.308;2023-09-19T08:42:00;69313.34;;;-148.95;72.14
38558;BME280;24333;42.626;23.308;2023-09-19T08:44:27;69325.78;;;-148.95;74.16
38558;BME280;24333;42.626;23.308;2023-09-19T08:47:09;69313.34;;;-148.95;73.02
38558;BME280;24333;42.626;23.308;2023-09-19T08:50:07;69309.19;;;-148.95;71.25
38558;BME280;24333;42.626;23.308;2023-09-19T09:00:38;69263.56;;;-148.95;71.18
38558;BME280;24333;42.626;23.308;2023-09-19T09:03:09;69251.13;;;-148.95;69.33
38558;BME280;24333;42.626;23.308;2023-09-19T09:06:05;69259.41;;;-148.95;69.43
38558;BME280;24333;42.626;23.308;2023-09-19T09:22:55;69132.91;;;-148.95;65.26
38558;BME280;24333;42.626;23.308;2023-09-19T09:25:21;69103.88;;;-148.95;63.85
38558;BME280;24333;42.626;23.308;2023-09-19T09:28:01;69120.44;;;-148.95;62.40
38558;BME280;24333;42.626;23.308;2023-09-19T09:30:34;69099.72;;;-148.95;63.29
38558;BME280;24333;42.626;23.308;2023-09-19T09:33:11;69114.22;;;-148.95;64.06
38558;BME280;24333;42.626;23.308;2023-09-19T09:35:48;69130.81;;;-148.95;64.31
38558;BME280;24333;42.626;23.308;2023-09-19T10:06:59;68962.84;;;-148.95;56.28
38558;BME280;24333;42.626;23.308;2023-09-19T10:09:30;68983.56;;;-148.95;59.39
38558;BME280;24333;42.626;23.308;2023-09-19T10:12:10;68969.06;;;-148.95;58.03
38558;BME280;24333;42.626;23.308;2023-09-19T10:14:38;69002.25;;;-148.95;57.99
38558;BME280;24333;42.626;23.308;2023-09-19T10:17:09;68983.56;;;-148.95;58.42
38558;BME280;24333;42.626;23.308;2023-09-19T10:19:46;69002.25;;;-148.95;56.89
38558;BME280;24333;42.626;23.308;2023-09-19T10:22:23;68969.06;;;-148.95;59.08
38558;BME280;24333;42.626;23.308;2023-09-19T10:24:50;68940.03;;;-148.95;57.09
38558;BME280;24333;42.626;23.308;2023-09-19T10:27:19;68915.13;;;-148.95;57.08
38558;BME280;24333;42.626;23.308;2023-09-19T10:29:49;68921.34;;;-148.95;56.20
38558;BME280;24333;42.626;23.308;2023-09-19T10:32:19;68915.13;;;-148.95;56.47
38558;BME280;24333;42.626;23.308;2023-09-19T10:34:49;68911.00;;;-148.95;55.05
38558;BME280;24333;42.626;23.308;2023-09-19T10:37:20;68894.41;;;-148.95;55.02
38558;BME280;24333;42.626;23.308;2023-09-19T10:39:51;68946.25;;;-148.95;55.07
38558;BME280;24333;42.626;23.308;2023-09-19T10:42:19;68906.84;;;-148.95;55.90
38558;BME280;24333;42.626;23.308;2023-09-19T10:44:47;68902.69;;;-148.95;55.48
38558;BME280;24333;42.626;23.308;2023-09-19T10:47:14;68919.28;;;-148.95;55.18
38558;BME280;24333;42.626;23.308;2023-09-19T10:49:44;68898.53;;;-148.95;53.34
38558;BME280;24333;42.626;23.308;2023-09-19T10:52:20;68898.53;;;-148.95;55.22
38558;BME280;24333;42.626;23.308;2023-09-19T10:54:47;68890.25;;;-148.95;56.52
38558;BME280;24333;42.626;23.308;2023-09-19T10:57:29;68923.44;;;-148.95;54.87
38558;BME280;24333;42.626;23.308;2023-09-19T11:00:06;68927.56;;;-148.95;55.11
38558;BME280;24333;42.626;23.308;2023-09-19T11:06:00;68933.81;;;-148.95;53.77
38558;BME280;24333;42.626;23.308;2023-09-19T11:08:26;68915.13;;;-148.95;56.54
38558;BME280;24333;42.626;23.308;2023-09-19T11:10:52;68877.81;;;-148.95;54.73
38558;BME280;24333;42.626;23.308;2023-09-19T11:13:35;68823.88;;;-148.95;54.28
38558;BME280;24333;42.626;23.308;2023-09-19T11:16:04;68803.16;;;-148.95;51.63
38558;BME280;24333;42.626;23.308;2023-09-19T11:26:47;68811.44;;;-148.95;51.46
38558;BME280;24333;42.626;23.308;2023-09-19T11:29:29;68769.97;;;-148.95;50.48
38558;BME280;24333;42.626;23.308;2023-09-19T11:31:59;68774.13;;;-148.95;49.63
38558;BME280;24333;42.626;23.308;2023-09-19T11:37:00;68747.16;;;-148.95;50.84
38558;BME280;24333;42.626;23.308;2023-09-19T11:39:29;68720.19;;;-148.95;49.48
38558;BME280;24333;42.626;23.308;2023-09-19T11:41:55;68699.47;;;-148.95;48.38
38558;BME280;24333;42.626;23.308;2023-09-19T11:44:33;68707.75;;;-148.95;47.23
38558;BME280;24333;42.626;23.308;2023-09-19T11:47:00;68757.53;;;-148.95;47.67
38558;BME280;24333;42.626;23.308;2023-09-19T12:35:07;68902.69;;;-148.95;56.66
38558;BME280;24333;42.626;23.308;2023-09-19T12:53:25;68873.66;;;-148.95;58.75
38558;BME280;24333;42.626;23.308;2023-09-19T12:56:03;68865.38;;;-148.95;58.64
38558;BME280;24333;42.626;23.308;2023-09-19T14:31:10;68776.19;;;-148.95;55.27
38558;BME280;24333;42.626;23.308;2023-09-19T14:33:37;68765.81;;;-148.95;54.66
38558;BME280;24333;42.626;23.308;2023-09-19T14:36:07;68757.53;;;-148.95;55.91
38558;BME280;24333;42.626;23.308;2023-09-19T14:38:35;68755.44;;;-148.95;56.65
38558;BME280;24333;42.626;23.308;2023-09-19T14:41:05;68757.53;;;-148.95;55.96
38558;BME280;24333;42.626;23.308;2023-09-19T14:43:31;68751.31;;;-148.95;56.21
38558;BME280;24333;42.626;23.308;2023-09-19T14:46:05;68753.38;;;-148.95;57.97
38558;BME280;24333;42.626;23.308;2023-09-19T14:48:35;68757.53;;;-148.95;57.60
38558;BME280;24333;42.626;23.308;2023-09-19T15:13:18;68855.00;;;-148.95;73.97
38558;BME280;24333;42.626;23.308;2023-09-19T15:15:43;68859.16;;;-148.95;73.46
38558;BME280;24333;42.626;23.308;2023-09-19T15:18:12;68865.38;;;-148.95;73.23
38558;BME280;24333;42.626;23.308;2023-09-19T15:20:45;68865.38;;;-148.95;73.33
38558;BME280;24333;42.626;23.308;2023-09-19T15:23:11;68875.72;;;-148.95;74.29
38558;BME280;24333;42.626;23.308;2023-09-19T15:25:37;68875.72;;;-148.95;74.03
38558;BME280;24333;42.626;23.308;2023-09-19T15:28:03;68881.97;;;-148.95;72.41
38558;BME280;24333;42.626;23.308;2023-09-19T15:30:37;68884.03;;;-148.95;73.00
38558;BME280;24333;42.626;23.308;2023-09-19T15:33:03;68888.19;;;-148.95;72.55
38558;BME280;24333;42.626;23.308;2023-09-19T15:35:29;68894.41;;;-148.95;73.38
38558;BME280;24333;42.626;23.308;2023-09-19T15:37:54;68890.25;;;-148.95;73.33
38558;BME280;24333;42.626;23.308;2023-09-19T15:40:21;68894.41;;;-148.95;74.25
38558;BME280;24333;42.626;23.308;2023-09-19T15:42:49;68898.53;;;-148.95;74.06
38558;BME280;24333;42.626;23.308;2023-09-19T15:45:14;68900.63;;;-148.95;74.39
38558;BME280;24333;42.626;23.308;2023-09-19T15:47:41;68913.06;;;-148.95;74.07
38558;BME280;24333;42.626;23.308;2023-09-19T15:52:49;68923.44;;;-148.95;74.88
38558;BME280;24333;42.626;23.308;2023-09-19T15:55:19;68931.72;;;-148.95;75.38
38558;BME280;24333;42.626;23.308;2023-09-19T15:57:49;68942.09;;;-148.95;75.56
38558;BME280;24333;42.626;23.308;2023-09-19T16:00:14;68948.31;;;-148.95;76.53
38558;BME280;24333;42.626;23.308;2023-09-19T16:02:44;68956.63;;;-148.95;77.75
38558;BME280;24333;42.626;23.308;2023-09-19T16:05:14;68960.75;;;-148.95;78.09
38558;BME280;24333;42.626;23.308;2023-09-19T16:07:50;68969.06;;;-148.95;79.02
38558;BME280;24333;42.626;23.308;2023-09-19T16:10:35;68983.56;;;-148.95;80.29
38558;BME280;24333;42.626;23.308;2023-09-19T16:13:06;68993.94;;;-148.95;80.18
38558;BME280;24333;42.626;23.308;2023-09-19T16:15:47;69002.25;;;-148.95;80.54
38558;BME280;24333;42.626;23.308;2023-09-19T16:18:16;69022.97;;;-148.95;81.46
38558;BME280;24333;42.626;23.308;2023-09-19T16:20:51;69031.28;;;-148.95;80.92
38558;BME280;24333;42.626;23.308;2023-09-19T16:23:21;69041.66;;;-148.95;79.44
38558;BME280;24333;42.626;23.308;2023-09-19T16:26:05;69045.78;;;-148.95;78.87
38558;BME280;24333;42.626;23.308;2023-09-19T16:28:32;69058.22;;;-148.95;78.83
38558;BME280;24333;42.626;23.308;2023-09-19T16:34:09;69085.19;;;-148.95;79.02
38558;BME280;24333;42.626;23.308;2023-09-19T16:36:35;69095.56;;;-148.95;79.69
38558;BME280;24333;42.626;23.308;2023-09-19T16:39:24;69097.63;;;-148.95;79.16
38558;BME280;24333;42.626;23.308;2023-09-19T16:41:51;69110.09;;;-148.95;79.01
38558;BME280;24333;42.626;23.308;2023-09-19T16:51:58;69122.53;;;-148.95;75.15
38558;BME280;24333;42.626;23.308;2023-09-19T16:54:23;69122.53;;;-148.95;74.43
38558;BME280;24333;42.626;23.308;2023-09-19T16:56:49;69120.44;;;-148.95;73.94
38558;BME280;24333;42.626;23.308;2023-09-19T16:59:15;69122.53;;;-148.95;73.70
38558;BME280;24333;42.626;23.308;2023-09-19T17:01:43;69126.69;;;-148.95;73.26
38558;BME280;24333;42.626;23.308;2023-09-19T17:04:12;69128.75;;;-148.95;73.33
38558;BME280;24333;42.626;23.308;2023-09-19T17:06:38;69128.75;;;-148.95;73.24
38558;BME280;24333;42.626;23.308;2023-09-19T17:09:27;69130.81;;;-148.95;75.54
38558;BME280;24333;42.626;23.308;2023-09-19T17:12:14;69145.34;;;-148.95;76.21
38558;BME280;24333;42.626;23.308;2023-09-19T17:14:39;69145.34;;;-148.95;77.28
38558;BME280;24333;42.626;23.308;2023-09-19T17:17:10;69139.13;;;-148.95;77.43
38558;BME280;24333;42.626;23.308;2023-09-19T17:19:40;69143.28;;;-148.95;76.54
38558;BME280;24333;42.626;23.308;2023-09-19T17:22:12;69147.41;;;-148.95;75.94
38558;BME280;24333;42.626;23.308;2023-09-19T17:24:40;69143.28;;;-148.95;75.78
38558;BME280;24333;42.626;23.308;2023-09-19T17:27:14;69149.50;;;-148.95;75.88
38558;BME280;24333;42.626;23.308;2023-09-19T17:29:55;69147.41;;;-148.95;76.99
38558;BME280;24333;42.626;23.308;2023-09-19T17:32:45;69147.41;;;-148.95;77.89
38558;BME280;24333;42.626;23.308;2023-09-19T17:35:15;69143.28;;;-148.95;78.28
38558;BME280;24333;42.626;23.308;2023-09-19T17:37:55;69151.56;;;-148.95;78.02
38558;BME280;24333;42.626;23.308;2023-09-19T19:14:23;69228.31;;;-148.95;88.29
38558;BME280;24333;42.626;23.308;2023-09-19T19:16:49;69222.09;;;-148.95;88.62
38558;BME280;24333;42.626;23.308;2023-09-19T19:19:15;69222.09;;;-148.95;89.61
38558;BME280;24333;42.626;23.308;2023-09-19T19:21:41;69213.78;;;-148.95;89.69
38558;BME280;24333;42.626;23.308;2023-09-19T19:24:07;69213.78;;;-148.95;89.11
38558;BME280;24333;42.626;23.308;2023-09-19T19:26:32;69213.78;;;-148.95;89.20
38558;BME280;24333;42.626;23.308;2023-09-19T19:28:58;69211.72;;;-148.95;89.77
38558;BME280;24333;42.626;23.308;2023-09-19T19:31:24;69217.94;;;-148.95;89.55
38558;BME280;24333;42.626;23.308;2023-09-19T19:33:54;69230.38;;;-148.95;90.64
38558;BME280;24333;42.626;23.308;2023-09-19T19:36:31;69236.59;;;-148.95;91.97
38558;BME280;24333;42.626;23.308;2023-09-19T19:38:58;69244.91;;;-148.95;94.44
38558;BME280;24333;42.626;23.308;2023-09-19T19:41:24;69236.59;;;-148.95;93.69
38558;BME280;24333;42.626;23.308;2023-09-19T19:43:49;69230.38;;;-148.95;93.67
38558;BME280;24333;42.626;23.308;2023-09-19T19:46:15;69230.38;;;-148.95;94.27
38558;BME280;24333;42.626;23.308;2023-09-19T19:48:40;69230.38;;;-148.95;93.75
38558;BME280;24333;42.626;23.308;2023-09-19T19:51:09;69244.91;;;-148.95;93.23
38558;BME280;24333;42.626;23.308;2023-09-19T19:53:36;69244.91;;;-148.95;93.78
38558;BME280;24333;42.626;23.308;2023-09-19T19:56:03;69249.03;;;-148.95;93.44
38558;BME280;24333;42.626;23.308;2023-09-19T22:19:47;69661.81;;;-148.95;100.00
38558;BME280;24333;42.626;23.308;2023-09-19T22:22:13;69661.81;;;-148.95;100.00
38558;BME280;24333;42.626;23.308;2023-09-19T22:24:39;69649.38;;;-148.95;100.00
38558;BME280;24333;42.626;23.308;2023-09-19T22:27:06;69653.50;;;-148.95;100.00
38558;BME280;24333;42.626;23.308;2023-09-19T22:29:31;69643.13;;;-148.95;100.00
38558;BME280;24333;42.626;23.308;2023-09-19T22:31:58;69632.78;;;-148.95;100.00
38558;BME280;24333;42.626;23.308;2023-09-19T22:34:24;69636.91;;;-148.95;100.00
38558;BME280;24333;42.626;23.308;2023-09-19T22:36:49;69630.69;;;-148.95;100.00
38558;BME280;24333;42.626;23.308;2023-09-19T22:39:19;69628.63;;;-148.95;100.00
38558;BME280;24333;42.626;23.308;2023-09-19T22:41:50;69624.47;;;-148.95;100.00
38558;BME280;24333;42.626;23.308;2023-09-19T22:44:19;69632.78;;;-148.95;100.00
38558;BME280;24333;42.626;23.308;2023-09-19T22:46:46;69632.78;;;-148.95;100.00
38558;BME280;24333;42.626;23.308;2023-09-19T22:49:13;69628.63;;;-148.95;100.00
38558;BME280;24333;42.626;23.308;2023-09-19T22:51:48;69628.63;;;-148.95;100.00
38558;BME280;24333;42.626;23.308;2023-09-19T22:54:17;69639.00;;;-148.95;100.00
38558;BME280;24333;42.626;23.308;2023-09-19T22:56:50;69634.84;;;-148.95;100.00
38558;BME280;24333;42.626;23.308;2023-09-19T22:59:17;69634.84;;;-148.95;100.00
38558;BME280;24333;42.626;23.308;2023-09-19T23:02:04;69632.78;;;-148.95;100.00
38558;BME280;24333;42.626;23.308;2023-09-19T23:04:30;69628.63;;;-148.95;100.00
38558;BME280;24333;42.626;23.308;2023-09-19T23:06:56;69634.84;;;-148.95;100.00
38558;BME280;24333;42.626;23.308;2023-09-19T23:09:32;69649.38;;;-148.95;100.00
38558;BME280;24333;42.626;23.308;2023-09-19T23:12:01;69649.38;;;-148.95;100.00
38558;BME280;24333;42.626;23.308;2023-09-19T23:14:36;69643.13;;;-148.95;100.00
38558;BME280;24333;42.626;23.308;2023-09-19T23:17:07;69634.84;;;-148.95;100.00
38558;BME280;24333;42.626;23.308;2023-09-19T23:19:40;69630.69;;;-148.95;100.00
38558;BME280;24333;42.626;23.308;2023-09-19T23:22:06;69653.50;;;-148.95;100.00
38558;BME280;24333;42.626;23.308;2023-09-19T23:24:45;69661.81;;;-148.95;100.00
38558;BME280;24333;42.626;23.308;2023-09-19T23:27:20;69657.66;;;-148.95;100.00
38558;BME280;24333;42.626;23.308;2023-09-19T23:29:58;69651.44;;;-148.95;100.00
38558;BME280;24333;42.626;23.308;2023-09-19T23:55:36;69680.47;;;-148.95;100.00
38558;BME280;24333;42.626;23.308;2023-09-19T23:58:04;69690.84;;;-148.95;100.00
